createdAt,value
2023-02-19T00:10:08.235Z,10.80
2023-02-19T00:21:02.084Z,10.90
2023-02-19T00:31:34.885Z,10.90
2023-02-19T00:42:03.303Z,10.90
2023-02-19T00:52:48.976Z,10.90
2023-02-19T01:04:21.759Z,10.90
2023-02-19T01:14:11.252Z,10.80
2023-02-19T01:24:34.480Z,10.80
2023-02-19T01:34:58.138Z,10.80
2023-02-19T01:45:25.385Z,10.70
2023-02-19T01:55:51.891Z,10.70
2023-02-19T02:07:27.296Z,10.70
2023-02-19T02:17:59.005Z,10.70
2023-02-19T02:28:37.506Z,10.70
2023-02-19T02:39:03.386Z,10.50
2023-02-19T02:49:29.949Z,10.40
2023-02-19T03:00:28.451Z,10.30
2023-02-19T03:11:31.200Z,10.00
2023-02-19T03:22:28.518Z,9.90
2023-02-19T03:33:04.259Z,9.70
2023-02-19T03:43:47.336Z,9.60
2023-02-19T03:54:30.287Z,9.20
2023-02-19T04:04:59.852Z,9.00
2023-02-19T04:15:36.548Z,8.80
2023-02-19T04:26:16.645Z,8.60
2023-02-19T04:37:41.541Z,8.50
2023-02-19T04:47:43.625Z,8.40
2023-02-19T04:58:09.697Z,8.40
2023-02-19T05:08:51.073Z,8.30
2023-02-19T05:19:13.056Z,8.30
2023-02-19T05:29:51.530Z,8.20
2023-02-19T05:40:18.917Z,8.20
2023-02-19T05:50:46.840Z,8.20
2023-02-19T06:01:16.069Z,8.20
2023-02-19T06:11:39.407Z,8.20
2023-02-19T06:22:03.380Z,8.20
2023-02-19T06:32:28.795Z,8.20
2023-02-19T06:45:18.444Z,8.20
2023-02-19T06:54:34.593Z,8.30
2023-02-19T07:04:58.936Z,8.20
2023-02-19T07:15:31.593Z,8.30
2023-02-19T07:25:58.915Z,8.30
2023-02-19T07:36:43.211Z,8.50
2023-02-19T07:47:07.732Z,8.50
2023-02-19T07:58:30.926Z,8.70
2023-02-19T08:08:26.146Z,8.90
2023-02-19T08:18:49.718Z,8.90
2023-02-19T08:29:18.721Z,9.10
2023-02-19T08:39:50.090Z,9.30
2023-02-19T08:50:49.121Z,9.50
2023-02-19T09:02:16.845Z,9.80
2023-02-19T09:12:25.056Z,9.80
2023-02-19T09:23:07.061Z,10.20
2023-02-19T09:34:08.791Z,10.00
2023-02-19T09:44:45.056Z,10.30
2023-02-19T09:55:41.179Z,10.40
2023-02-19T10:06:19.343Z,10.30
2023-02-19T10:16:53.673Z,10.50
2023-02-19T10:27:23.357Z,10.70
2023-02-19T10:37:49.693Z,10.40
2023-02-19T10:59:38.425Z,11.00
2023-02-19T11:10:05.881Z,11.40
2023-02-19T11:20:45.319Z,11.30
2023-02-19T11:31:28.929Z,11.00
2023-02-19T11:42:17.952Z,11.30
2023-02-19T11:52:50.571Z,11.70
2023-02-19T12:03:38.646Z,11.50
2023-02-19T12:14:37.724Z,11.30
2023-02-19T12:25:30.398Z,11.30
2023-02-19T12:36:05.904Z,11.10
2023-02-19T12:46:46.961Z,11.40
2023-02-19T12:57:15.073Z,11.30
2023-02-19T13:07:46.967Z,12.20
2023-02-19T13:18:15.491Z,11.50
2023-02-19T13:28:54.245Z,11.30
2023-02-19T13:39:22.734Z,11.40
2023-02-19T13:49:53.487Z,12.40
2023-02-19T14:00:50.046Z,12.20
2023-02-19T14:11:18.429Z,11.80
2023-02-19T14:22:31.476Z,11.70
2023-02-19T14:33:11.028Z,11.70
2023-02-19T14:43:35.794Z,11.80
2023-02-19T14:54:00.178Z,11.70
2023-02-19T15:04:32.337Z,11.40
2023-02-19T15:14:58.079Z,11.70
2023-02-19T15:25:22.644Z,11.60
2023-02-19T15:35:51.274Z,11.50
2023-02-19T15:46:19.708Z,11.30
2023-02-19T15:56:48.086Z,11.10
2023-02-19T16:07:27.364Z,10.90
2023-02-19T16:17:50.869Z,10.60
2023-02-19T16:28:15.458Z,10.60
2023-02-19T16:38:39.381Z,10.30
2023-02-19T16:49:00.711Z,10.30
2023-02-19T16:59:23.484Z,10.00
2023-02-19T17:09:48.765Z,9.60
2023-02-19T17:20:22.402Z,9.30
2023-02-19T17:30:45.912Z,9.10
2023-02-19T17:41:10.847Z,8.80
2023-02-19T17:51:35.052Z,8.60
2023-02-19T18:02:10.805Z,8.50
2023-02-19T18:12:37.173Z,8.40
2023-02-19T18:23:06.177Z,8.20
2023-02-19T18:33:30.003Z,8.10
2023-02-19T18:44:27.289Z,8.20
2023-02-19T18:54:51.559Z,7.90
2023-02-19T19:05:14.360Z,7.80
2023-02-19T19:15:36.525Z,7.60
2023-02-19T19:25:59.637Z,7.60
2023-02-19T19:36:30.212Z,7.50
2023-02-19T19:46:56.502Z,7.50
2023-02-19T19:57:22.206Z,7.50
2023-02-19T20:08:10.162Z,7.40
2023-02-19T20:18:45.373Z,7.10
2023-02-19T20:30:01.348Z,7.10
2023-02-19T20:40:03.831Z,6.90
2023-02-19T20:50:40.244Z,6.90
2023-02-19T21:01:12.322Z,7.10
2023-02-19T21:11:48.148Z,7.00
2023-02-19T21:22:15.294Z,7.00
2023-02-19T21:32:39.075Z,7.00
2023-02-19T21:43:02.825Z,6.90
2023-02-19T21:53:50.563Z,7.00
2023-02-19T22:05:13.040Z,7.20
2023-02-19T22:15:38.164Z,7.40
2023-02-19T22:26:06.960Z,7.20
2023-02-19T22:36:36.109Z,7.00
2023-02-19T22:46:59.602Z,7.10
2023-02-19T22:58:03.584Z,7.10
2023-02-19T23:19:33.660Z,6.70
2023-02-19T23:30:00.862Z,6.70
2023-02-19T23:40:40.517Z,6.60
2023-02-19T23:51:36.309Z,6.60
